createdAt,value
2023-04-10T00:00:24.492Z,25.51
2023-04-10T00:01:24.538Z,25.49
2023-04-10T00:02:24.739Z,25.50
2023-04-10T00:03:24.727Z,25.50
2023-04-10T00:04:24.691Z,25.50
2023-04-10T00:05:24.615Z,25.51
2023-04-10T00:06:24.655Z,25.50
2023-04-10T00:07:24.685Z,25.50
2023-04-10T00:08:24.720Z,25.50
2023-04-10T00:09:24.710Z,25.52
2023-04-10T00:10:24.736Z,25.50
2023-04-10T00:11:24.740Z,25.49
2023-04-10T00:12:24.798Z,25.49
2023-04-10T00:13:24.785Z,25.49
2023-04-10T00:14:24.833Z,25.49
2023-04-10T00:15:24.851Z,25.48
2023-04-10T00:16:24.898Z,25.49
2023-04-10T00:17:24.945Z,25.48
2023-04-10T00:18:24.896Z,25.49
2023-04-10T00:19:24.928Z,25.48
2023-04-10T00:20:24.958Z,25.51
2023-04-10T00:21:24.991Z,25.50
2023-04-10T00:22:25.032Z,25.50
2023-04-10T00:23:25.060Z,25.49
2023-04-10T00:24:25.090Z,25.50
2023-04-10T00:25:25.109Z,25.50
2023-04-10T00:26:25.116Z,25.48
2023-04-10T00:27:25.142Z,25.51
2023-04-10T00:28:25.168Z,25.50
2023-04-10T00:29:25.174Z,25.51
2023-04-10T00:30:25.224Z,25.49
2023-04-10T00:31:25.262Z,25.50
2023-04-10T00:32:25.375Z,25.51
2023-04-10T00:33:25.314Z,25.49
2023-04-10T00:34:25.311Z,25.49
2023-04-10T00:35:25.364Z,25.48
2023-04-10T00:36:25.374Z,25.50
2023-04-10T00:37:25.415Z,25.49
2023-04-10T00:38:25.407Z,25.48
2023-04-10T00:39:25.462Z,25.50
2023-04-10T00:40:25.477Z,25.48
2023-04-10T00:41:25.524Z,25.47
2023-04-10T00:42:25.515Z,25.47
2023-04-10T00:43:25.570Z,25.46
2023-04-10T00:44:25.575Z,25.46
2023-04-10T00:45:25.615Z,25.47
2023-04-10T00:46:25.739Z,25.48
2023-04-10T00:47:25.712Z,25.50
2023-04-10T00:48:25.732Z,25.49
2023-04-10T00:49:25.791Z,25.48
2023-04-10T00:50:25.782Z,25.48
2023-04-10T00:51:25.804Z,25.49
2023-04-10T00:52:25.826Z,25.49
2023-04-10T00:53:25.837Z,25.47
2023-04-10T00:54:25.890Z,25.46
2023-04-10T00:55:25.922Z,25.47
2023-04-10T00:56:25.954Z,25.50
2023-04-10T00:57:25.962Z,25.47
2023-04-10T00:58:26.015Z,25.45
2023-04-10T00:59:26.021Z,25.49
2023-04-10T01:00:26.081Z,25.47
2023-04-10T01:01:26.216Z,25.46
2023-04-10T01:02:26.210Z,25.49
2023-04-10T01:03:26.333Z,25.46
2023-04-10T01:04:26.294Z,25.48
2023-04-10T01:05:26.212Z,25.48
2023-04-10T01:06:26.240Z,25.47
2023-04-10T01:07:26.276Z,25.46
2023-04-10T01:08:26.321Z,25.47
2023-04-10T01:09:26.347Z,25.46
2023-04-10T01:10:26.398Z,25.48
2023-04-10T01:11:26.366Z,25.45
2023-04-10T01:12:26.408Z,25.45
2023-04-10T01:13:26.470Z,25.45
2023-04-10T01:14:26.498Z,25.44
2023-04-10T01:15:26.513Z,25.45
2023-04-10T01:16:26.564Z,25.45
2023-04-10T01:17:26.580Z,25.44
2023-04-10T01:18:26.601Z,25.44
2023-04-10T01:19:26.621Z,25.45
2023-04-10T01:20:26.672Z,25.45
2023-04-10T01:21:26.684Z,25.47
2023-04-10T01:22:26.724Z,25.45
2023-04-10T01:23:26.731Z,25.45
2023-04-10T01:24:26.808Z,25.46
2023-04-10T01:25:26.825Z,25.45
2023-04-10T01:26:26.838Z,25.45
2023-04-10T01:27:26.891Z,25.43
2023-04-10T01:28:26.894Z,25.46
2023-04-10T01:29:26.927Z,25.44
2023-04-10T01:30:26.946Z,25.44
2023-04-10T01:31:27.136Z,25.42
2023-04-10T01:32:27.042Z,25.44
2023-04-10T01:33:27.020Z,25.44
2023-04-10T01:34:27.155Z,25.43
2023-04-10T01:35:27.135Z,25.43
2023-04-10T01:36:27.151Z,25.43
2023-04-10T01:37:27.155Z,25.44
2023-04-10T01:38:27.221Z,25.44
2023-04-10T01:39:27.210Z,25.44
2023-04-10T01:40:27.282Z,25.44
2023-04-10T01:41:27.313Z,25.44
2023-04-10T01:42:27.349Z,25.43
2023-04-10T01:43:27.359Z,25.45
2023-04-10T01:44:27.397Z,25.44
2023-04-10T01:45:27.429Z,25.45
2023-04-10T01:46:27.512Z,25.42
2023-04-10T01:47:27.534Z,25.44
2023-04-10T01:48:27.565Z,25.41
2023-04-10T01:49:27.556Z,25.42
2023-04-10T01:50:27.599Z,25.42
2023-04-10T01:51:27.639Z,25.42
2023-04-10T01:52:27.677Z,25.44
2023-04-10T01:53:27.685Z,25.44
2023-04-10T01:54:27.744Z,25.43
2023-04-10T01:55:27.784Z,25.42
2023-04-10T01:56:27.805Z,25.44
2023-04-10T01:57:27.837Z,25.44
2023-04-10T01:58:27.864Z,25.43
2023-04-10T01:59:27.901Z,25.41
2023-04-10T02:00:27.996Z,25.44
2023-04-10T02:01:30.205Z,25.41
2023-04-10T02:02:28.293Z,25.41
2023-04-10T02:03:28.575Z,25.40
2023-04-10T02:04:28.356Z,25.43
2023-04-10T02:05:28.328Z,25.41
2023-04-10T02:06:28.358Z,25.41
2023-04-10T02:07:28.364Z,25.42
2023-04-10T02:08:28.394Z,25.41
2023-04-10T02:09:28.960Z,25.42
2023-04-10T02:10:28.476Z,25.43
2023-04-10T02:11:28.492Z,25.42
2023-04-10T02:12:28.518Z,25.42
2023-04-10T02:13:28.554Z,25.41
2023-04-10T02:14:28.590Z,25.42
2023-04-10T02:15:28.674Z,25.42
2023-04-10T02:16:28.808Z,25.42
2023-04-10T02:17:28.745Z,25.41
2023-04-10T02:18:28.799Z,25.42
2023-04-10T02:19:28.772Z,25.39
2023-04-10T02:20:28.803Z,25.42
2023-04-10T02:21:28.831Z,25.39
2023-04-10T02:22:28.857Z,25.41
2023-04-10T02:23:28.901Z,25.41
2023-04-10T02:24:28.942Z,25.41
2023-04-10T02:25:28.987Z,25.40
2023-04-10T02:26:29.024Z,25.41
2023-04-10T02:27:29.085Z,25.40
2023-04-10T02:28:29.109Z,25.41
2023-04-10T02:29:29.167Z,25.40
2023-04-10T02:30:29.179Z,25.39
2023-04-10T02:31:29.250Z,25.39
2023-04-10T02:32:29.302Z,25.39
2023-04-10T02:33:29.279Z,25.39
2023-04-10T02:34:29.337Z,25.39
2023-04-10T02:35:29.374Z,25.41
2023-04-10T02:36:29.413Z,25.38
2023-04-10T02:37:29.437Z,25.37
2023-04-10T02:38:29.478Z,25.39
2023-04-10T02:39:29.516Z,25.37
2023-04-10T02:40:29.540Z,25.38
2023-04-10T02:41:29.607Z,25.38
2023-04-10T02:42:29.640Z,25.36
2023-04-10T02:43:29.675Z,25.37
2023-04-10T02:44:29.703Z,25.38
2023-04-10T02:45:29.737Z,25.38
2023-04-10T02:46:29.830Z,25.38
2023-04-10T02:47:29.835Z,25.39
2023-04-10T02:48:29.864Z,25.38
2023-04-10T02:49:29.894Z,25.38
2023-04-10T02:50:29.953Z,25.38
2023-04-10T02:51:30.526Z,25.37
2023-04-10T02:52:30.051Z,25.38
2023-04-10T02:53:30.081Z,25.38
2023-04-10T02:54:30.084Z,25.38
2023-04-10T02:55:30.142Z,25.37
2023-04-10T02:56:30.181Z,25.37
2023-04-10T02:57:30.223Z,25.37
2023-04-10T02:58:30.286Z,25.36
2023-04-10T02:59:30.302Z,25.37
2023-04-10T03:00:30.354Z,25.39
2023-04-10T03:01:30.388Z,25.36
2023-04-10T03:02:30.488Z,25.36
2023-04-10T03:03:30.611Z,25.36
2023-04-10T03:04:30.515Z,25.36
2023-04-10T03:05:30.532Z,25.37
2023-04-10T03:06:30.557Z,25.37
2023-04-10T03:07:30.625Z,25.36
2023-04-10T03:08:30.652Z,25.35
2023-04-10T03:09:30.693Z,25.37
2023-04-10T03:10:30.721Z,25.37
2023-04-10T03:11:30.780Z,25.36
2023-04-10T03:12:30.800Z,25.36
2023-04-10T03:13:30.853Z,25.36
2023-04-10T03:14:30.944Z,25.36
2023-04-10T03:15:30.903Z,25.37
2023-04-10T03:16:30.935Z,25.37
2023-04-10T03:17:31.002Z,25.36
2023-04-10T03:18:30.989Z,25.37
2023-04-10T03:19:31.055Z,25.35
2023-04-10T03:20:31.080Z,25.36
2023-04-10T03:21:31.117Z,25.35
2023-04-10T03:22:31.151Z,25.35
2023-04-10T03:23:31.157Z,25.35
2023-04-10T03:24:31.234Z,25.35
2023-04-10T03:25:31.261Z,25.36
2023-04-10T03:26:31.291Z,25.35
2023-04-10T03:27:31.362Z,25.35
2023-04-10T03:28:31.361Z,25.35
2023-04-10T03:29:31.397Z,25.35
2023-04-10T03:30:31.465Z,25.35
2023-04-10T03:31:31.552Z,25.35
2023-04-10T03:32:31.522Z,25.35
2023-04-10T03:33:31.616Z,25.34
2023-04-10T03:34:31.597Z,25.35
2023-04-10T03:35:31.677Z,25.36
2023-04-10T03:36:31.695Z,25.36
2023-04-10T03:37:31.736Z,25.34
2023-04-10T03:38:31.795Z,25.34
2023-04-10T03:39:31.781Z,25.34
2023-04-10T03:40:31.825Z,25.34
2023-04-10T03:41:31.886Z,25.35
2023-04-10T03:42:31.979Z,25.34
2023-04-10T03:43:31.965Z,25.34
2023-04-10T03:44:32.037Z,25.34
2023-04-10T03:45:32.052Z,25.34
2023-04-10T03:46:32.090Z,25.35
2023-04-10T03:47:32.185Z,25.33
2023-04-10T03:48:32.218Z,25.35
2023-04-10T03:49:32.234Z,25.32
2023-04-10T03:50:32.264Z,25.33
2023-04-10T03:51:32.332Z,25.33
2023-04-10T03:52:32.404Z,25.34
2023-04-10T03:53:33.985Z,25.31
2023-04-10T03:54:32.519Z,25.34
2023-04-10T03:55:32.552Z,25.33
2023-04-10T03:56:32.615Z,25.33
2023-04-10T03:57:32.622Z,25.34
2023-04-10T03:58:32.686Z,25.35
2023-04-10T04:00:32.759Z,25.35
2023-04-10T04:01:32.805Z,25.33
2023-04-10T04:02:32.946Z,25.32
2023-04-10T04:03:32.990Z,25.31
2023-04-10T04:04:33.144Z,25.32
2023-04-10T04:05:32.988Z,25.32
2023-04-10T04:06:32.989Z,25.33
2023-04-10T04:07:33.056Z,25.33
2023-04-10T04:08:33.095Z,25.31
2023-04-10T04:09:33.121Z,25.32
2023-04-10T04:10:33.160Z,25.32
2023-04-10T04:11:33.192Z,25.30
2023-04-10T04:12:33.266Z,25.32
2023-04-10T04:13:33.293Z,25.32
2023-04-10T04:14:33.335Z,25.33
2023-04-10T04:15:33.372Z,25.34
2023-04-10T04:16:33.424Z,25.30
2023-04-10T04:17:33.476Z,25.31
2023-04-10T04:18:33.494Z,25.31
2023-04-10T04:19:33.532Z,25.31
2023-04-10T04:20:33.575Z,25.29
2023-04-10T04:21:33.608Z,25.29
2023-04-10T04:22:33.666Z,25.30
2023-04-10T04:23:33.681Z,25.28
2023-04-10T04:24:33.741Z,25.31
2023-04-10T04:25:33.753Z,25.31
2023-04-10T04:26:33.810Z,25.28
2023-04-10T04:27:33.824Z,25.31
2023-04-10T04:28:33.890Z,25.29
2023-04-10T04:29:33.905Z,25.31
2023-04-10T04:30:33.965Z,25.29
2023-04-10T04:31:34.041Z,25.31
2023-04-10T04:32:34.089Z,25.32
2023-04-10T04:33:34.050Z,25.28
2023-04-10T04:34:34.112Z,25.30
2023-04-10T04:35:34.203Z,25.28
2023-04-10T04:36:34.218Z,25.28
2023-04-10T04:37:34.259Z,25.28
2023-04-10T04:38:34.282Z,25.28
2023-04-10T04:39:34.321Z,25.28
2023-04-10T04:40:34.365Z,25.27
2023-04-10T04:41:34.424Z,25.27
2023-04-10T04:42:34.471Z,25.26
2023-04-10T04:43:34.461Z,25.29
2023-04-10T04:44:34.522Z,25.27
2023-04-10T04:45:34.634Z,25.29
2023-04-10T04:46:34.611Z,25.27
2023-04-10T04:47:34.665Z,25.26
2023-04-10T04:48:34.700Z,25.29
2023-04-10T04:49:34.763Z,25.27
2023-04-10T04:50:34.782Z,25.27
2023-04-10T04:51:34.819Z,25.27
2023-04-10T04:52:34.872Z,25.24
2023-04-10T04:53:34.898Z,25.27
2023-04-10T04:54:34.949Z,25.24
2023-04-10T04:55:35.014Z,25.28
2023-04-10T04:56:35.036Z,25.27
2023-04-10T04:57:35.083Z,25.28
2023-04-10T04:58:35.154Z,25.24
2023-04-10T04:59:35.175Z,25.23
2023-04-10T05:00:35.227Z,25.27
2023-04-10T05:01:35.267Z,25.23
2023-04-10T05:02:35.452Z,25.25
2023-04-10T05:03:35.470Z,25.21
2023-04-10T05:04:35.384Z,25.25
2023-04-10T05:05:35.394Z,25.23
2023-04-10T05:06:35.428Z,25.22
2023-04-10T05:07:35.468Z,25.24
2023-04-10T05:08:35.506Z,25.23
2023-04-10T05:09:35.554Z,25.24
2023-04-10T05:10:35.605Z,25.23
2023-04-10T05:11:35.669Z,25.21
2023-04-10T05:12:35.675Z,25.22
2023-04-10T05:13:35.717Z,25.19
2023-04-10T05:14:35.766Z,25.20
2023-04-10T05:15:35.850Z,25.20
2023-04-10T05:16:35.859Z,25.21
2023-04-10T05:17:35.952Z,25.22
2023-04-10T05:18:35.984Z,25.21
2023-04-10T05:19:35.963Z,25.20
2023-04-10T05:20:35.986Z,25.17
2023-04-10T05:21:36.029Z,25.18
2023-04-10T05:22:36.073Z,25.18
2023-04-10T05:23:36.099Z,25.17
2023-04-10T05:24:36.144Z,25.16
2023-04-10T05:25:36.181Z,25.20
2023-04-10T05:26:36.222Z,25.17
2023-04-10T05:27:36.246Z,25.17
2023-04-10T05:28:36.323Z,25.16
2023-04-10T05:29:36.354Z,25.17
2023-04-10T05:30:36.368Z,25.17
2023-04-10T05:31:36.475Z,25.15
2023-04-10T05:32:36.483Z,25.14
2023-04-10T05:33:36.489Z,25.15
2023-04-10T05:34:36.518Z,25.15
2023-04-10T05:35:36.588Z,25.14
2023-04-10T05:36:36.583Z,25.14
2023-04-10T05:37:36.631Z,25.14
2023-04-10T05:38:36.655Z,25.14
2023-04-10T05:39:36.704Z,25.15
2023-04-10T05:40:36.714Z,25.13
2023-04-10T05:41:36.753Z,25.12
2023-04-10T05:42:36.785Z,25.10
2023-04-10T05:43:36.839Z,25.11
2023-04-10T05:44:36.910Z,25.10
2023-04-10T05:45:36.907Z,25.13
2023-04-10T05:47:56.194Z,25.18
2023-04-10T05:48:56.356Z,25.14
2023-04-10T05:49:56.104Z,25.14
2023-04-10T05:50:56.099Z,25.12
2023-04-10T05:51:56.077Z,25.12
2023-04-10T05:52:56.120Z,25.12
2023-04-10T05:53:56.200Z,25.10
2023-04-10T05:54:56.237Z,25.07
2023-04-10T05:55:56.283Z,25.09
2023-04-10T05:56:56.321Z,25.09
2023-04-10T05:57:56.415Z,25.07
2023-04-10T05:58:56.474Z,25.08
2023-04-10T05:59:56.412Z,25.06
2023-04-10T06:00:56.450Z,25.07
2023-04-10T06:01:56.476Z,25.06
2023-04-10T06:02:56.563Z,25.05
2023-04-10T06:03:56.659Z,25.05
2023-04-10T06:04:56.704Z,25.04
2023-04-10T06:05:56.596Z,25.04
2023-04-10T06:06:56.595Z,25.02
2023-04-10T06:07:58.327Z,25.01
2023-04-10T06:08:56.749Z,25.00
2023-04-10T06:09:56.688Z,25.00
2023-04-10T06:10:56.707Z,25.01
2023-04-10T06:11:56.725Z,24.98
2023-04-10T06:12:56.931Z,24.98
2023-04-10T06:13:56.782Z,24.97
2023-04-10T06:14:56.844Z,24.98
2023-04-10T06:15:56.862Z,24.97
2023-04-10T06:16:56.873Z,24.96
2023-04-10T06:17:56.887Z,24.94
2023-04-10T06:18:56.975Z,24.96
2023-04-10T06:19:56.887Z,24.94
2023-04-10T06:20:56.905Z,24.94
2023-04-10T06:21:56.952Z,24.92
2023-04-10T06:22:56.949Z,24.92
2023-04-10T06:23:56.917Z,24.90
2023-04-10T06:24:57.011Z,24.91
2023-04-10T06:25:56.981Z,24.89
2023-04-10T06:26:56.981Z,24.87
2023-04-10T06:27:56.981Z,24.85
2023-04-10T06:28:56.991Z,24.85
2023-04-10T06:29:56.999Z,24.83
2023-04-10T06:30:57.059Z,24.82
2023-04-10T06:31:57.067Z,24.83
2023-04-10T06:32:57.076Z,24.80
2023-04-10T06:33:57.066Z,24.78
2023-04-10T06:34:57.060Z,24.76
2023-04-10T06:35:57.120Z,24.76
2023-04-10T06:36:57.076Z,24.75
2023-04-10T06:37:57.133Z,24.74
2023-04-10T06:38:57.450Z,24.75
2023-04-10T06:39:57.128Z,24.71
2023-04-10T06:40:57.138Z,24.70
2023-04-10T06:41:57.097Z,24.66
2023-04-10T06:42:57.137Z,24.66
2023-04-10T06:43:57.129Z,24.64
2023-04-10T06:44:57.126Z,24.64
2023-04-10T06:45:57.114Z,24.63
2023-04-10T06:46:57.214Z,24.56
2023-04-10T06:47:57.159Z,24.56
2023-04-10T06:48:57.145Z,24.57
2023-04-10T06:49:57.135Z,24.56
2023-04-10T06:50:57.144Z,24.52
2023-04-10T06:51:57.280Z,24.52
2023-04-10T06:52:57.195Z,24.49
2023-04-10T06:53:57.208Z,24.47
2023-04-10T06:54:57.196Z,24.47
2023-04-10T06:55:57.259Z,24.44
2023-04-10T06:56:57.254Z,24.41
2023-04-10T06:57:57.323Z,24.39
2023-04-10T06:58:57.364Z,24.35
2023-04-10T06:59:57.384Z,24.33
2023-04-10T07:00:57.496Z,24.31
2023-04-10T07:01:57.496Z,24.29
2023-04-10T07:02:57.655Z,24.27
2023-04-10T07:03:57.699Z,24.23
2023-04-10T07:04:57.656Z,24.20
2023-04-10T07:05:57.715Z,24.17
2023-04-10T07:06:57.784Z,24.17
2023-04-10T07:07:57.882Z,24.15
2023-04-10T07:08:57.890Z,24.12
2023-04-10T07:09:57.976Z,24.10
2023-04-10T07:10:58.855Z,24.11
2023-04-10T07:11:58.110Z,24.08
2023-04-10T07:12:58.170Z,24.07
2023-04-10T07:13:58.232Z,24.02
2023-04-10T07:14:58.235Z,24.01
2023-04-10T07:15:58.348Z,24.00
2023-04-10T07:16:58.354Z,24.01
2023-04-10T07:17:58.427Z,24.00
2023-04-10T07:18:58.447Z,23.99
2023-04-10T07:19:58.477Z,23.98
2023-04-10T07:20:58.559Z,23.97
2023-04-10T07:21:58.605Z,23.94
2023-04-10T07:22:58.660Z,23.95
2023-04-10T07:23:58.689Z,23.94
2023-04-10T07:24:58.722Z,23.94
2023-04-10T07:25:58.774Z,23.90
2023-04-10T07:26:58.830Z,23.90
2023-04-10T07:27:58.895Z,23.86
2023-04-10T07:28:58.920Z,23.87
2023-04-10T07:29:58.917Z,23.88
2023-04-10T07:30:58.928Z,23.86
2023-04-10T07:31:59.019Z,23.84
2023-04-10T07:32:59.153Z,23.84
2023-04-10T07:33:59.106Z,23.85
2023-04-10T07:34:59.031Z,23.84
2023-04-10T07:35:59.191Z,23.81
2023-04-10T07:36:59.083Z,23.81
2023-04-10T07:37:59.164Z,23.80
2023-04-10T07:38:59.174Z,23.80
2023-04-10T07:39:59.196Z,23.77
2023-04-10T07:40:59.240Z,23.77
2023-04-10T07:41:59.207Z,23.75
2023-04-10T07:42:59.324Z,23.75
2023-04-10T07:43:59.283Z,23.74
2023-04-10T07:44:59.323Z,23.75
2023-04-10T07:45:59.390Z,23.73
2023-04-10T07:46:59.333Z,23.72
2023-04-10T07:47:59.386Z,23.71
2023-04-10T07:48:59.351Z,23.71
2023-04-10T07:49:59.364Z,23.71
2023-04-10T07:50:59.377Z,23.69
2023-04-10T07:51:59.365Z,23.69
2023-04-10T07:52:59.378Z,23.70
2023-04-10T07:53:59.374Z,23.68
2023-04-10T07:54:59.380Z,23.68
2023-04-10T07:55:59.402Z,23.68
2023-04-10T07:56:59.417Z,23.68
2023-04-10T07:57:59.439Z,23.67
2023-04-10T07:58:59.406Z,23.67
2023-04-10T07:59:59.381Z,23.65
2023-04-10T08:00:59.423Z,23.64
2023-04-10T08:01:59.438Z,23.64
2023-04-10T08:02:59.675Z,23.63
2023-04-10T08:04:00.016Z,23.64
2023-04-10T08:04:59.531Z,23.63
2023-04-10T08:05:59.374Z,23.62
2023-04-10T08:06:59.414Z,23.60
2023-04-10T08:07:59.415Z,23.61
2023-04-10T08:08:59.395Z,23.60
2023-04-10T08:09:59.397Z,23.59
2023-04-10T08:10:59.397Z,23.57
2023-04-10T08:11:59.466Z,23.55
2023-04-10T08:12:59.388Z,23.57
2023-04-10T08:13:59.409Z,23.55
2023-04-10T08:14:59.418Z,23.54
2023-04-10T08:15:59.428Z,23.53
2023-04-10T08:16:59.447Z,23.54
2023-04-10T08:17:59.428Z,23.50
2023-04-10T08:18:59.431Z,23.52
2023-04-10T08:19:59.414Z,23.50
2023-04-10T08:20:59.418Z,23.50
2023-04-10T08:21:59.437Z,23.51
2023-04-10T08:23:06.272Z,23.48
2023-04-10T08:24:00.453Z,23.46
2023-04-10T08:24:59.423Z,23.45
2023-04-10T08:25:59.389Z,23.45
2023-04-10T08:26:59.389Z,23.44
2023-04-10T08:27:59.420Z,23.45
2023-04-10T08:28:59.363Z,23.43
2023-04-10T08:29:59.410Z,23.43
2023-04-10T08:30:59.421Z,23.40
2023-04-10T08:31:59.342Z,23.41
2023-04-10T08:32:59.418Z,23.39
2023-04-10T08:33:59.704Z,23.39
2023-04-10T08:34:59.371Z,23.38
2023-04-10T08:35:59.396Z,23.37
2023-04-10T08:36:59.436Z,23.36
2023-04-10T08:38:12.614Z,23.35
2023-04-10T08:39:00.496Z,23.37
2023-04-10T08:39:59.435Z,23.36
2023-04-10T08:40:59.436Z,23.37
2023-04-10T08:41:59.449Z,23.36
2023-04-10T08:42:59.425Z,23.34
2023-04-10T08:43:59.435Z,23.34
2023-04-10T08:44:59.434Z,23.36
2023-04-10T08:45:59.460Z,23.34
2023-04-10T08:46:59.450Z,23.34
2023-04-10T08:47:59.531Z,23.32
2023-04-10T08:48:59.603Z,23.34
2023-04-10T08:49:59.645Z,23.34
2023-04-10T08:50:59.682Z,23.35
2023-04-10T08:51:59.771Z,23.33
2023-04-10T08:52:59.810Z,23.33
2023-04-10T08:53:59.883Z,23.34
2023-04-10T08:54:59.914Z,23.36
2023-04-10T08:55:59.971Z,23.35
2023-04-10T08:57:00.031Z,23.35
2023-04-10T08:58:01.513Z,23.34
2023-04-10T08:59:00.159Z,23.35
2023-04-10T09:00:04.239Z,23.34
2023-04-10T09:01:01.206Z,23.32
2023-04-10T09:02:00.258Z,23.33
2023-04-10T09:03:00.329Z,23.33
2023-04-10T09:04:00.760Z,23.33
2023-04-10T09:05:00.193Z,23.30
2023-04-10T09:06:00.174Z,23.31
2023-04-10T09:07:00.176Z,23.34
2023-04-10T09:08:00.163Z,23.32
2023-04-10T09:10:00.185Z,23.32
2023-04-10T09:11:00.166Z,23.34
2023-04-10T09:12:00.148Z,23.33
2023-04-10T09:13:00.218Z,23.32
2023-04-10T09:14:00.255Z,23.32
2023-04-10T09:15:00.289Z,23.32
2023-04-10T09:16:00.536Z,23.32
2023-04-10T09:17:00.395Z,23.31
2023-04-10T09:18:00.519Z,23.28
2023-04-10T09:19:00.486Z,23.30
2023-04-10T09:20:00.503Z,23.31
2023-04-10T09:21:00.539Z,23.32
2023-04-10T09:22:00.622Z,23.31
2023-04-10T09:23:00.699Z,23.32
2023-04-10T09:24:00.714Z,23.30
2023-04-10T09:25:00.756Z,23.29
2023-04-10T09:26:00.807Z,23.30
2023-04-10T09:27:00.825Z,23.29
2023-04-10T09:28:00.866Z,23.30
2023-04-10T09:29:00.939Z,23.28
2023-04-10T09:30:00.970Z,23.30
2023-04-10T09:31:01.004Z,23.30
2023-04-10T09:32:01.038Z,23.29
2023-04-10T09:33:02.245Z,23.29
2023-04-10T09:34:01.090Z,23.29
2023-04-10T09:35:01.112Z,23.30
2023-04-10T09:36:01.263Z,23.28
2023-04-10T09:37:01.214Z,23.31
2023-04-10T09:38:01.232Z,23.29
2023-04-10T09:39:01.279Z,23.30
2023-04-10T09:40:01.327Z,23.29
2023-04-10T09:41:01.397Z,23.28
2023-04-10T09:42:01.398Z,23.28
2023-04-10T09:43:01.424Z,23.29
2023-04-10T09:44:01.480Z,23.30
2023-04-10T09:45:01.506Z,23.30
2023-04-10T09:46:01.525Z,23.29
2023-04-10T09:47:01.610Z,23.29
2023-04-10T09:48:01.669Z,23.29
2023-04-10T09:49:01.636Z,23.29
2023-04-10T09:50:01.641Z,23.29
2023-04-10T09:51:01.655Z,23.29
2023-04-10T09:52:01.706Z,23.28
2023-04-10T09:53:01.742Z,23.29
2023-04-10T09:54:01.781Z,23.29
2023-04-10T09:55:01.778Z,23.30
2023-04-10T09:56:01.802Z,23.31
2023-04-10T09:57:01.858Z,23.31
2023-04-10T09:58:01.886Z,23.30
2023-04-10T09:59:01.978Z,23.33
2023-04-10T10:00:01.959Z,23.32
2023-04-10T10:01:01.982Z,23.33
2023-04-10T10:02:02.073Z,23.33
2023-04-10T10:03:02.188Z,23.31
2023-04-10T10:04:02.105Z,23.30
2023-04-10T10:05:02.118Z,23.32
2023-04-10T10:06:02.072Z,23.33
2023-04-10T10:07:02.139Z,23.34
2023-04-10T10:08:02.175Z,23.32
2023-04-10T10:09:02.237Z,23.32
2023-04-10T10:10:02.250Z,23.34
2023-04-10T10:11:02.240Z,23.32
2023-04-10T10:12:02.279Z,23.33
2023-04-10T10:13:02.283Z,23.32
2023-04-10T10:14:02.296Z,23.33
2023-04-10T10:15:02.360Z,23.34
2023-04-10T10:16:02.385Z,23.34
2023-04-10T10:17:02.398Z,23.34
2023-04-10T10:18:02.445Z,23.34
2023-04-10T10:19:02.427Z,23.34
2023-04-10T10:20:02.583Z,23.33
2023-04-10T10:21:02.460Z,23.34
2023-04-10T10:22:02.493Z,23.35
2023-04-10T10:23:02.631Z,23.35
2023-04-10T10:24:02.633Z,23.37
2023-04-10T10:25:02.606Z,23.36
2023-04-10T10:26:03.936Z,23.37
2023-04-10T10:27:02.711Z,23.36
2023-04-10T10:28:02.673Z,23.37
2023-04-10T10:29:02.643Z,23.34
2023-04-10T10:30:08.431Z,23.36
2023-04-10T10:31:03.748Z,23.36
2023-04-10T10:32:02.755Z,23.37
2023-04-10T10:33:02.714Z,23.38
2023-04-10T10:34:02.638Z,23.39
2023-04-10T10:35:02.681Z,23.38
2023-04-10T10:36:02.681Z,23.39
2023-04-10T10:37:02.665Z,23.38
2023-04-10T10:38:02.659Z,23.39
2023-04-10T10:39:02.692Z,23.39
2023-04-10T10:40:02.624Z,23.41
2023-04-10T10:41:02.701Z,23.43
2023-04-10T10:42:02.586Z,23.41
2023-04-10T10:43:02.563Z,23.43
2023-04-10T10:44:02.582Z,23.44
2023-04-10T10:45:02.589Z,23.43
2023-04-10T10:46:02.628Z,23.44
2023-04-10T10:47:02.572Z,23.42
2023-04-10T10:48:02.723Z,23.43
2023-04-10T10:49:02.568Z,23.46
2023-04-10T10:50:02.577Z,23.47
2023-04-10T10:51:02.549Z,23.46
2023-04-10T10:52:02.641Z,23.46
2023-04-10T10:53:02.609Z,23.46
2023-04-10T10:54:02.605Z,23.46
2023-04-10T10:55:02.694Z,23.47
2023-04-10T10:56:02.738Z,23.46
2023-04-10T10:57:02.700Z,23.46
2023-04-10T10:58:02.773Z,23.46
2023-04-10T10:59:02.732Z,23.46
2023-04-10T11:00:02.778Z,23.45
2023-04-10T11:01:02.773Z,23.48
2023-04-10T11:02:02.839Z,23.49
2023-04-10T11:03:02.975Z,23.47
2023-04-10T11:04:03.026Z,23.47
2023-04-10T11:05:02.785Z,23.47
2023-04-10T11:06:02.797Z,23.48
2023-04-10T11:07:02.802Z,23.46
2023-04-10T11:08:02.808Z,23.47
2023-04-10T11:09:02.878Z,23.46
2023-04-10T11:10:02.906Z,23.47
2023-04-10T11:11:02.946Z,23.50
2023-04-10T11:12:02.915Z,23.50
2023-04-10T11:13:03.004Z,23.50
2023-04-10T11:14:02.945Z,23.51
2023-04-10T11:15:03.018Z,23.50
2023-04-10T11:16:02.989Z,23.49
2023-04-10T11:17:03.147Z,23.52
2023-04-10T11:18:03.037Z,23.53
2023-04-10T11:19:13.262Z,23.53
2023-04-10T11:20:04.117Z,23.53
2023-04-10T11:21:03.005Z,23.52
2023-04-10T11:22:03.004Z,23.52
2023-04-10T11:23:03.036Z,23.53
2023-04-10T11:24:02.995Z,23.54
2023-04-10T11:25:03.024Z,23.55
2023-04-10T11:26:02.999Z,23.55
2023-04-10T11:27:03.048Z,23.55
2023-04-10T11:28:02.986Z,23.56
2023-04-10T11:29:02.952Z,23.56
2023-04-10T11:30:02.985Z,23.59
2023-04-10T11:31:02.947Z,23.60
2023-04-10T11:32:02.971Z,23.60
2023-04-10T11:33:03.087Z,23.62
2023-04-10T11:34:02.937Z,23.61
2023-04-10T11:35:04.804Z,23.63
2023-04-10T11:36:02.970Z,23.62
2023-04-10T11:37:02.888Z,23.63
2023-04-10T11:38:02.880Z,23.67
2023-04-10T11:39:03.002Z,23.65
2023-04-10T11:40:02.898Z,23.67
2023-04-10T11:41:02.978Z,23.68
2023-04-10T11:42:02.927Z,23.67
2023-04-10T11:43:02.969Z,23.68
2023-04-10T11:44:02.973Z,23.67
2023-04-10T11:45:03.042Z,23.69
2023-04-10T11:46:03.136Z,23.70
2023-04-10T11:47:03.032Z,23.70
2023-04-10T11:48:03.075Z,23.68
2023-04-10T11:49:03.126Z,23.71
2023-04-10T11:50:03.131Z,23.73
2023-04-10T11:51:03.180Z,23.72
2023-04-10T11:52:03.156Z,23.72
2023-04-10T11:53:03.190Z,23.73
2023-04-10T11:54:03.242Z,23.73
2023-04-10T11:55:03.244Z,23.75
2023-04-10T11:56:03.307Z,23.73
2023-04-10T11:57:03.292Z,23.76
2023-04-10T11:58:03.306Z,23.73
2023-04-10T11:59:03.307Z,23.72
2023-04-10T12:00:03.348Z,23.74
2023-04-10T12:01:03.357Z,23.74
2023-04-10T12:02:03.471Z,23.75
2023-04-10T12:03:03.540Z,23.77
2023-04-10T12:04:03.581Z,23.75
2023-04-10T12:05:03.501Z,23.77
2023-04-10T12:06:03.471Z,23.78
2023-04-10T12:07:03.538Z,23.78
2023-04-10T12:08:03.556Z,23.78
2023-04-10T12:09:04.079Z,23.77
2023-04-10T12:10:03.618Z,23.79
2023-04-10T12:11:03.661Z,23.77
2023-04-10T12:12:03.679Z,23.77
2023-04-10T12:13:03.694Z,23.78
2023-04-10T12:14:03.724Z,23.80
2023-04-10T12:15:03.734Z,23.79
2023-04-10T12:16:03.861Z,23.78
2023-04-10T12:17:03.813Z,23.81
2023-04-10T12:18:03.859Z,23.81
2023-04-10T12:19:03.864Z,23.80
2023-04-10T12:20:03.913Z,23.82
2023-04-10T12:21:04.719Z,23.82
2023-04-10T12:22:03.955Z,23.83
2023-04-10T12:23:04.005Z,23.85
2023-04-10T12:24:04.047Z,23.84
2023-04-10T12:25:04.070Z,23.84
2023-04-10T12:26:04.094Z,23.83
2023-04-10T12:27:04.117Z,23.86
2023-04-10T12:28:04.168Z,23.86
2023-04-10T12:29:04.184Z,23.87
2023-04-10T12:30:04.209Z,23.87
2023-04-10T12:31:04.293Z,23.89
2023-04-10T12:32:04.304Z,23.88
2023-04-10T12:33:04.405Z,23.90
2023-04-10T12:34:04.387Z,23.92
2023-04-10T12:35:04.392Z,23.91
2023-04-10T12:36:04.457Z,23.92
2023-04-10T12:37:04.477Z,23.95
2023-04-10T12:38:04.517Z,23.97
2023-04-10T12:39:04.570Z,23.96
2023-04-10T12:40:04.625Z,23.98
2023-04-10T12:41:04.652Z,23.99
2023-04-10T12:42:04.710Z,23.97
2023-04-10T12:43:04.737Z,23.97
2023-04-10T12:44:04.787Z,23.97
2023-04-10T12:45:04.830Z,23.99
2023-04-10T12:46:04.965Z,23.98
2023-04-10T12:47:04.948Z,23.99
2023-04-10T12:48:05.043Z,24.00
2023-04-10T12:49:05.027Z,24.01
2023-04-10T12:50:05.106Z,23.97
2023-04-10T12:51:05.136Z,23.98
2023-04-10T12:52:05.186Z,23.96
2023-04-10T12:53:05.994Z,23.96
2023-04-10T12:54:05.314Z,23.95
2023-04-10T12:55:05.317Z,23.93
2023-04-10T12:56:05.361Z,23.94